Time;durP1;ratioP1;P1;durP2;ratioP2;P2;SDS_P1;SDS_P2;PMS_P1;PMS_P2;Temp;Humidity;BMP_temperature;BMP_pressure;BME280_temperature;BME280_humidity;BME280_pressure;Samples;Min_cycle;Max_cycle;Signal;HPM_P1;HPM_P2
2023/08/31 00:02:03;;;;;;;2.88;1.17;;;16.20;99.90;;;;;;5075238;28;20077;-84
2023/08/31 00:04:29;;;;;;;2.92;0.95;;;16.20;99.90;;;;;;5076300;28;20386;-85
2023/08/31 00:06:56;;;;;;;2.60;1.17;;;16.30;99.90;;;;;;5075756;28;20025;-85
2023/08/31 00:09:23;;;;;;;3.15;1.15;;;16.20;99.90;;;;;;5059759;28;20039;-84
2023/08/31 00:11:49;;;;;;;4.18;1.25;;;16.20;99.90;;;;;;5059130;28;20043;-84
2023/08/31 00:14:17;;;;;;;2.05;1.38;;;16.30;99.90;;;;;;5059558;28;20064;-84
2023/08/31 00:16:43;;;;;;;3.80;1.40;;;16.30;99.90;;;;;;5059265;28;20139;-84
2023/08/31 00:19:08;;;;;;;3.05;1.17;;;16.20;99.90;;;;;;5075471;28;20543;-85
2023/08/31 00:21:34;;;;;;;4.03;1.50;;;16.20;99.90;;;;;;5075499;28;20119;-85
2023/08/31 00:23:59;;;;;;;2.22;1.30;;;16.10;99.90;;;;;;5075857;28;20063;-85
2023/08/31 00:26:25;;;;;;;2.80;1.30;;;16.10;99.90;;;;;;5076389;28;20025;-85
2023/08/31 00:28:51;;;;;;;2.95;1.35;;;16.20;99.90;;;;;;5075954;28;20507;-85
2023/08/31 00:31:17;;;;;;;5.10;1.35;;;16.20;99.90;;;;;;5059129;28;20028;-85
2023/08/31 00:33:43;;;;;;;4.63;1.15;;;16.20;99.90;;;;;;5076156;28;20027;-84
2023/08/31 00:36:09;;;;;;;3.00;1.20;;;16.20;99.90;;;;;;5075805;28;20475;-85
2023/08/31 00:38:35;;;;;;;1.98;1.23;;;16.20;99.90;;;;;;5058879;28;20093;-85
2023/08/31 00:41:01;;;;;;;2.17;1.25;;;16.10;99.90;;;;;;5075454;28;20058;-85
2023/08/31 00:43:28;;;;;;;3.75;1.40;;;16.10;99.90;;;;;;5075688;28;20477;-85
2023/08/31 00:45:59;;;;;;;1.83;1.10;;;16.00;99.90;;;;;;5075375;28;20036;-85
2023/08/31 00:48:26;;;;;;;2.40;1.25;;;16.00;99.90;;;;;;5076596;28;20052;-85
2023/08/31 00:50:52;;;;;;;3.38;1.50;;;16.00;99.90;;;;;;5058772;28;20028;-86
2023/08/31 00:53:18;;;;;;;1.75;1.30;;;16.00;99.90;;;;;;5074998;28;20031;-85
2023/08/31 00:55:47;;;;;;;3.38;1.38;;;15.90;99.90;;;;;;5074616;28;20035;-86
2023/08/31 00:58:13;;;;;;;1.65;1.13;;;15.90;99.90;;;;;;5057996;28;20032;-85
2023/08/31 01:01:04;;;;;;;2.60;1.60;;;15.90;99.90;;;;;;5074616;28;20492;-85
2023/08/31 01:04:01;;;;;;;3.08;1.70;;;15.80;99.90;;;;;;5058104;28;20115;-84
2023/08/31 01:06:53;;;;;;;7.25;1.50;;;15.80;99.90;;;;;;5058143;28;20032;-85
2023/08/31 01:09:28;;;;;;;3.80;1.80;;;15.80;99.90;;;;;;5058000;28;20533;-85
2023/08/31 01:12:11;;;;;;;2.78;1.60;;;15.80;99.90;;;;;;5057312;28;20035;-86
2023/08/31 01:14:47;;;;;;;3.63;1.70;;;15.80;99.90;;;;;;5058451;28;20085;-85
2023/08/31 01:17:15;;;;;;;4.70;1.70;;;15.80;99.90;;;;;;5075598;28;20025;-84
2023/08/31 01:19:53;;;;;;;7.00;1.40;;;15.80;99.90;;;;;;5057704;28;20043;-85
2023/08/31 01:22:35;;;;;;;3.28;2.13;;;15.70;99.90;;;;;;5058079;28;20032;-84
2023/08/31 01:25:04;;;;;;;4.30;1.65;;;15.70;99.90;;;;;;5057500;28;20036;-85
2023/08/31 01:27:31;;;;;;;4.95;1.83;;;15.70;99.90;;;;;;5058086;28;20060;-84
2023/08/31 01:29:57;;;;;;;3.35;1.58;;;15.70;99.90;;;;;;5075054;28;20037;-85
2023/08/31 01:32:22;;;;;;;7.18;1.73;;;15.70;99.90;;;;;;5074562;28;20025;-86
2023/08/31 01:34:50;;;;;;;6.18;1.92;;;15.70;99.90;;;;;;5074069;28;20029;-89
2023/08/31 01:37:24;;;;;;;2.70;1.52;;;15.70;99.90;;;;;;5057160;28;20116;-86
2023/08/31 01:39:55;;;;;;;2.42;1.63;;;15.70;99.90;;;;;;5057129;28;20036;-92
2023/08/31 01:42:23;;;;;;;3.78;1.67;;;15.70;99.90;;;;;;5057117;28;20481;-86
2023/08/31 01:44:50;;;;;;;4.60;1.90;;;15.70;99.90;;;;;;5075057;28;20115;-89
2023/08/31 01:47:17;;;;;;;2.78;1.90;;;15.60;99.90;;;;;;5074294;28;20107;-87
2023/08/31 01:49:43;;;;;;;2.85;1.92;;;15.60;99.90;;;;;;5074873;28;20048;-86
2023/08/31 01:52:09;;;;;;;4.13;1.70;;;15.60;99.90;;;;;;5072643;28;20028;-86
2023/08/31 01:54:37;;;;;;;4.20;1.75;;;15.70;99.90;;;;;;5057239;28;20081;-86
2023/08/31 01:57:03;;;;;;;2.35;1.27;;;15.70;99.90;;;;;;5073047;28;20027;-86
2023/08/31 01:59:28;;;;;;;4.20;1.70;;;15.70;99.90;;;;;;5074839;28;20056;-86
2023/08/31 02:01:54;;;;;;;4.95;1.80;;;15.70;99.90;;;;;;5056277;28;20066;-89
2023/08/31 02:04:20;;;;;;;2.15;1.60;;;15.70;99.90;;;;;;5073647;28;20059;-86
2023/08/31 02:06:45;;;;;;;2.55;1.45;;;15.70;99.90;;;;;;5056852;28;20067;-87
2023/08/31 02:09:11;;;;;;;4.90;1.45;;;15.70;99.90;;;;;;5072962;28;20024;-86
2023/08/31 02:11:37;;;;;;;3.42;1.52;;;15.60;99.90;;;;;;5074682;28;20083;-86
2023/08/31 02:14:04;;;;;;;3.95;1.75;;;15.60;99.90;;;;;;5073031;28;20032;-86
2023/08/31 02:16:31;;;;;;;3.15;1.60;;;15.60;99.90;;;;;;5073794;28;20082;-86
2023/08/31 02:18:57;;;;;;;2.28;1.58;;;15.60;99.90;;;;;;5073946;28;20028;-87
2023/08/31 02:21:22;;;;;;;3.35;1.50;;;15.60;99.90;;;;;;5074592;28;20032;-86
2023/08/31 02:23:48;;;;;;;4.20;1.40;;;15.60;99.90;;;;;;5056778;28;20021;-87
2023/08/31 02:26:14;;;;;;;3.38;1.25;;;15.60;99.90;;;;;;5073236;28;20128;-87
2023/08/31 02:28:39;;;;;;;2.08;1.30;;;15.60;99.90;;;;;;5074070;28;20064;-86
2023/08/31 02:31:05;;;;;;;5.25;1.38;;;15.70;99.90;;;;;;5073067;28;20031;-86
2023/08/31 02:33:31;;;;;;;3.20;1.35;;;15.70;99.90;;;;;;5073342;28;20021;-87
2023/08/31 02:35:57;;;;;;;3.65;1.67;;;15.70;99.90;;;;;;5074390;28;20107;-88
2023/08/31 02:38:22;;;;;;;2.05;1.30;;;15.70;99.90;;;;;;5073633;28;20046;-83
2023/08/31 02:40:49;;;;;;;3.95;1.50;;;15.70;99.90;;;;;;5074588;28;20036;-86
2023/08/31 02:43:15;;;;;;;2.63;1.25;;;15.70;99.90;;;;;;5056239;28;20051;-86
2023/08/31 02:45:40;;;;;;;4.35;1.70;;;15.70;99.90;;;;;;5056756;28;20111;-85
2023/08/31 02:48:10;;;;;;;2.22;1.40;;;15.70;99.90;;;;;;5072287;28;20118;-85
2023/08/31 02:50:35;;;;;;;3.00;1.70;;;15.70;99.90;;;;;;5074357;28;20024;-85
2023/08/31 02:53:01;;;;;;;1.83;0.95;;;15.70;99.90;;;;;;5073974;28;20028;-85
2023/08/31 02:55:27;;;;;;;1.48;1.17;;;15.60;99.90;;;;;;5073609;28;20021;-84
2023/08/31 02:57:54;;;;;;;2.08;1.30;;;15.60;99.90;;;;;;5073344;28;20385;-84
2023/08/31 03:00:21;;;;;;;5.13;1.48;;;15.60;99.90;;;;;;5056191;28;20025;-85
2023/08/31 03:02:53;;;;;;;2.40;1.30;;;15.60;99.90;;;;;;5073181;28;20029;-85
2023/08/31 03:05:21;;;;;;;1.98;1.17;;;15.60;99.90;;;;;;5072657;28;20553;-85
2023/08/31 03:07:47;;;;;;;4.93;1.10;;;15.60;99.90;;;;;;5074266;28;20021;-85
2023/08/31 03:10:12;;;;;;;2.83;1.40;;;15.70;99.90;;;;;;5073511;28;20029;-85
2023/08/31 03:12:38;;;;;;;5.85;1.83;;;15.70;99.90;;;;;;5072865;28;20033;-85
2023/08/31 03:15:05;;;;;;;3.17;1.52;;;15.60;99.90;;;;;;5072359;28;20021;-85
2023/08/31 03:17:31;;;;;;;6.43;1.60;;;15.70;99.90;;;;;;5055813;28;20055;-85
2023/08/31 03:19:57;;;;;;;3.25;1.35;;;15.70;99.90;;;;;;5072530;28;20056;-90
2023/08/31 03:22:23;;;;;;;2.55;1.30;;;15.70;99.90;;;;;;5072424;28;20078;-84
2023/08/31 03:24:48;;;;;;;3.85;1.60;;;15.70;99.90;;;;;;5073938;28;20025;-85
2023/08/31 03:27:15;;;;;;;2.38;1.60;;;15.70;99.90;;;;;;5072231;28;20086;-85
2023/08/31 03:29:41;;;;;;;2.45;1.30;;;15.70;99.90;;;;;;5073599;28;20029;-85
2023/08/31 03:32:07;;;;;;;5.03;1.60;;;15.60;99.90;;;;;;5073449;28;20036;-85
2023/08/31 03:34:32;;;;;;;2.47;1.55;;;15.60;99.90;;;;;;5073970;28;20350;-84
2023/08/31 03:36:58;;;;;;;2.47;1.42;;;15.60;99.90;;;;;;5072132;28;20024;-90
2023/08/31 03:39:25;;;;;;;2.97;1.50;;;15.60;99.90;;;;;;5072230;28;20131;-84
2023/08/31 03:41:51;;;;;;;3.70;1.60;;;15.50;99.90;;;;;;5056066;28;20047;-85
2023/08/31 03:44:17;;;;;;;4.78;1.60;;;15.50;99.90;;;;;;5073312;28;20445;-85
2023/08/31 03:46:43;;;;;;;2.83;1.60;;;15.50;99.90;;;;;;5072691;28;20021;-83
2023/08/31 03:49:08;;;;;;;6.85;1.80;;;15.50;99.90;;;;;;5055167;28;20630;-85
2023/08/31 03:51:34;;;;;;;2.25;1.52;;;15.50;99.90;;;;;;5072885;28;20169;-85
2023/08/31 03:54:00;;;;;;;2.88;1.52;;;15.50;99.90;;;;;;5072499;28;20055;-90
2023/08/31 03:56:26;;;;;;;2.15;1.40;;;15.60;99.90;;;;;;5074120;28;20047;-84
2023/08/31 03:58:52;;;;;;;4.28;1.75;;;15.60;99.90;;;;;;5076024;28;20033;-85
2023/08/31 04:01:18;;;;;;;8.02;1.80;;;15.60;99.90;;;;;;5076880;28;20078;-85
2023/08/31 04:03:43;;;;;;;5.90;1.80;;;15.60;99.90;;;;;;5076314;28;20074;-84
2023/08/31 04:06:09;;;;;;;3.58;1.77;;;15.50;99.90;;;;;;5075991;28;20032;-84
2023/08/31 04:08:34;;;;;;;2.70;1.42;;;15.50;99.90;;;;;;5075804;28;20461;-84
2023/08/31 04:11:00;;;;;;;3.92;1.60;;;15.50;99.90;;;;;;5075666;28;20361;-90
2023/08/31 04:13:26;;;;;;;3.25;1.60;;;15.50;99.90;;;;;;5075531;28;20052;-84
2023/08/31 04:15:53;;;;;;;10.27;2.30;;;15.50;99.90;;;;;;5076624;28;20443;-84
2023/08/31 04:18:19;;;;;;;5.38;2.00;;;15.50;99.90;;;;;;5075845;28;20267;-84
2023/08/31 04:20:49;;;;;;;3.05;1.67;;;15.40;99.90;;;;;;5075431;28;20511;-84
2023/08/31 04:23:15;;;;;;;6.05;1.60;;;15.40;99.90;;;;;;5058167;28;20028;-84
2023/08/31 04:25:41;;;;;;;4.85;1.73;;;15.40;99.90;;;;;;5075650;28;20166;-84
2023/08/31 04:28:07;;;;;;;4.28;1.60;;;15.40;99.90;;;;;;5074601;28;20095;-84
2023/08/31 04:30:33;;;;;;;4.00;1.73;;;15.50;99.90;;;;;;5076171;28;20412;-85
2023/08/31 04:32:58;;;;;;;5.13;1.80;;;15.40;99.90;;;;;;5058791;28;20020;-84
2023/08/31 04:35:24;;;;;;;3.83;1.70;;;15.40;99.90;;;;;;5075274;28;20058;-84
2023/08/31 04:37:50;;;;;;;2.20;1.63;;;15.40;99.90;;;;;;5076435;28;20476;-84
2023/08/31 04:40:15;;;;;;;3.25;1.73;;;15.40;99.90;;;;;;5074771;28;20406;-84
2023/08/31 04:42:41;;;;;;;5.70;1.90;;;15.40;99.90;;;;;;5075415;28;20401;-86
2023/08/31 04:45:07;;;;;;;4.32;1.98;;;15.40;99.90;;;;;;5075011;28;20078;-86
2023/08/31 04:47:32;;;;;;;3.95;1.50;;;15.40;99.90;;;;;;5075242;28;20094;-86
2023/08/31 04:49:59;;;;;;;4.05;1.38;;;15.40;99.90;;;;;;5076538;28;20473;-86
2023/08/31 04:52:25;;;;;;;3.08;1.70;;;15.40;99.90;;;;;;5074767;28;20020;-86
2023/08/31 04:54:50;;;;;;;5.45;1.42;;;15.40;99.90;;;;;;5076249;28;20540;-83
2023/08/31 04:57:16;;;;;;;4.55;1.40;;;15.40;99.90;;;;;;5074444;28;20050;-84
2023/08/31 04:59:41;;;;;;;3.83;1.20;;;15.40;99.90;;;;;;5075027;28;20028;-84
2023/08/31 05:02:07;;;;;;;2.97;1.73;;;15.30;99.90;;;;;;5074232;28;20032;-86
2023/08/31 05:04:32;;;;;;;4.68;1.60;;;15.30;99.90;;;;;;5057992;28;20454;-85
2023/08/31 05:06:58;;;;;;;5.22;1.50;;;15.30;99.90;;;;;;5074778;28;20024;-85
2023/08/31 05:09:32;;;;;;;4.78;1.50;;;15.30;99.90;;;;;;5073832;28;20055;-86
2023/08/31 05:11:58;;;;;;;3.63;1.30;;;15.30;99.90;;;;;;5074448;28;20033;-85
2023/08/31 05:14:23;;;;;;;2.70;1.55;;;15.40;99.90;;;;;;5075176;28;20117;-86
2023/08/31 05:16:49;;;;;;;2.47;1.60;;;15.40;99.90;;;;;;5074431;28;20080;-86
2023/08/31 05:19:14;;;;;;;2.28;1.30;;;15.40;99.90;;;;;;5074668;28;20044;-86
2023/08/31 05:21:40;;;;;;;3.30;1.50;;;15.40;99.90;;;;;;5075631;28;20103;-85
2023/08/31 05:24:05;;;;;;;3.13;1.70;;;15.40;99.90;;;;;;5075359;28;20028;-90
2023/08/31 05:26:31;;;;;;;5.35;1.60;;;15.40;99.90;;;;;;5074564;28;20465;-86
2023/08/31 05:28:57;;;;;;;2.80;1.38;;;15.50;99.90;;;;;;5074390;28;20060;-85
2023/08/31 05:31:22;;;;;;;3.45;1.45;;;15.50;99.90;;;;;;5073813;28;20111;-85
2023/08/31 05:33:48;;;;;;;3.63;1.48;;;15.50;99.90;;;;;;5074596;28;20029;-85
2023/08/31 05:36:13;;;;;;;2.42;1.15;;;15.50;99.90;;;;;;5074137;28;20024;-85
2023/08/31 05:38:39;;;;;;;3.40;1.38;;;15.50;99.90;;;;;;5074590;28;20127;-85
2023/08/31 05:41:09;;;;;;;3.53;1.10;;;15.50;99.90;;;;;;5074424;28;20025;-91
2023/08/31 05:43:35;;;;;;;2.47;1.10;;;15.50;99.90;;;;;;5057665;28;20024;-85
2023/08/31 05:46:02;;;;;;;2.85;1.33;;;15.50;99.90;;;;;;5075336;28;20028;-85
2023/08/31 05:48:27;;;;;;;3.50;1.27;;;15.50;99.90;;;;;;5075272;28;20041;-86
2023/08/31 05:50:54;;;;;;;4.65;1.25;;;15.60;99.90;;;;;;5058049;28;20129;-85
2023/08/31 05:53:19;;;;;;;4.88;1.30;;;15.60;99.90;;;;;;5058018;28;20476;-86
2023/08/31 05:55:45;;;;;;;3.10;1.10;;;15.60;99.90;;;;;;5075833;28;20033;-85
2023/08/31 05:58:11;;;;;;;5.63;1.35;;;15.70;99.90;;;;;;5074259;28;20532;-86
2023/08/31 06:00:38;;;;;;;2.47;1.23;;;15.70;99.90;;;;;;5075320;28;20026;-85
2023/08/31 06:03:05;;;;;;;3.38;1.30;;;15.60;99.90;;;;;;5074299;28;20028;-85
2023/08/31 06:05:31;;;;;;;5.45;1.50;;;15.60;99.90;;;;;;5074127;28;20027;-85
2023/08/31 06:07:57;;;;;;;3.83;1.40;;;15.60;99.90;;;;;;5075186;28;20025;-86
2023/08/31 06:10:23;;;;;;;3.85;1.58;;;15.70;99.90;;;;;;5057760;28;20123;-86
2023/08/31 06:12:50;;;;;;;4.57;1.40;;;15.70;99.90;;;;;;5057421;28;20044;-85
2023/08/31 06:15:16;;;;;;;9.25;1.30;;;15.70;99.90;;;;;;5057557;28;20400;-86
2023/08/31 06:17:42;;;;;;;4.38;1.55;;;15.70;99.90;;;;;;5056781;28;20029;-86
2023/08/31 06:20:08;;;;;;;3.63;1.35;;;15.70;99.90;;;;;;5056205;28;20078;-86
2023/08/31 06:22:34;;;;;;;3.05;1.45;;;15.80;99.90;;;;;;5073290;28;20056;-86
2023/08/31 06:25:00;;;;;;;5.60;1.58;;;15.80;99.90;;;;;;5074409;28;20039;-86
2023/08/31 06:27:26;;;;;;;4.57;1.52;;;15.80;99.90;;;;;;5072749;28;20039;-85
2023/08/31 06:29:51;;;;;;;4.78;1.60;;;15.90;99.90;;;;;;5072945;28;20040;-86
2023/08/31 06:32:18;;;;;;;4.93;1.35;;;15.90;99.90;;;;;;5055870;28;20115;-86
2023/08/31 06:34:44;;;;;;;5.53;1.52;;;15.90;99.90;;;;;;5056531;28;20020;-86
2023/08/31 06:37:09;;;;;;;4.63;1.55;;;15.90;99.90;;;;;;5056270;28;20484;-86
2023/08/31 06:39:35;;;;;;;2.95;1.55;;;15.90;99.90;;;;;;5073631;28;20119;-84
2023/08/31 06:42:02;;;;;;;5.40;1.45;;;15.90;99.90;;;;;;5073254;28;20051;-85
2023/08/31 06:44:29;;;;;;;5.00;1.73;;;15.90;99.90;;;;;;5055945;28;20033;-85
2023/08/31 06:46:55;;;;;;;4.85;1.30;;;15.90;99.90;;;;;;5073404;28;20530;-85
2023/08/31 06:49:22;;;;;;;3.63;1.10;;;15.90;99.90;;;;;;5073582;28;20045;-85
2023/08/31 06:51:48;;;;;;;4.25;1.38;;;15.80;99.90;;;;;;5056321;28;20113;-86
2023/08/31 06:54:13;;;;;;;2.75;1.20;;;15.90;99.90;;;;;;5072675;28;20119;-86
2023/08/31 06:56:39;;;;;;;5.60;1.60;;;15.80;99.90;;;;;;5073118;28;20021;-85
2023/08/31 06:59:04;;;;;;;2.60;1.30;;;15.80;99.90;;;;;;5073308;28;20036;-85
2023/08/31 07:01:32;;;;;;;4.25;1.38;;;15.90;99.90;;;;;;5072787;28;20052;-85
2023/08/31 07:03:58;;;;;;;3.97;1.50;;;15.90;99.90;;;;;;5073900;28;20465;-85
2023/08/31 07:06:24;;;;;;;7.47;1.40;;;15.90;99.90;;;;;;5072467;28;20032;-85
2023/08/31 07:08:49;;;;;;;2.72;1.55;;;15.80;99.90;;;;;;5072857;28;20077;-85
2023/08/31 07:11:16;;;;;;;3.15;1.38;;;15.80;99.90;;;;;;5072561;28;20024;-85
2023/08/31 07:13:42;;;;;;;4.88;1.65;;;15.90;99.90;;;;;;5072901;28;20025;-85
2023/08/31 07:16:07;;;;;;;4.45;1.45;;;15.90;99.90;;;;;;5073193;28;20029;-85
2023/08/31 07:18:33;;;;;;;4.63;1.40;;;15.90;99.90;;;;;;5072415;28;20037;-85
2023/08/31 07:20:59;;;;;;;3.42;1.40;;;15.90;99.90;;;;;;5072809;28;20558;-85
2023/08/31 07:23:24;;;;;;;3.40;1.65;;;15.90;99.90;;;;;;5055661;28;20503;-85
2023/08/31 07:25:50;;;;;;;5.15;1.40;;;15.90;99.90;;;;;;5072221;28;20028;-84
2023/08/31 07:28:16;;;;;;;5.80;2.10;;;15.90;99.90;;;;;;5060950;28;20029;-85
2023/08/31 07:30:41;;;;;;;3.38;1.40;;;16.00;99.90;;;;;;5036376;28;20025;-85
2023/08/31 07:33:07;;;;;;;3.67;1.75;;;16.00;99.90;;;;;;5039497;28;20121;-86
2023/08/31 07:35:33;;;;;;;3.13;1.20;;;16.00;99.90;;;;;;5039224;28;20017;-86
2023/08/31 07:37:59;;;;;;;4.43;1.30;;;16.10;99.90;;;;;;5040009;28;20478;-85
2023/08/31 07:40:25;;;;;;;3.28;1.50;;;16.10;99.90;;;;;;5039672;28;20132;-85
2023/08/31 07:42:51;;;;;;;5.25;1.70;;;16.10;99.90;;;;;;5040496;28;20025;-84
2023/08/31 07:45:17;;;;;;;3.55;1.27;;;16.10;99.90;;;;;;5057607;28;20358;-84
2023/08/31 07:47:43;;;;;;;2.85;1.40;;;16.20;99.90;;;;;;5057968;28;20373;-83
2023/08/31 07:50:09;;;;;;;3.42;1.15;;;16.20;99.90;;;;;;5058083;28;20036;-83
2023/08/31 07:52:34;;;;;;;5.60;1.60;;;16.20;99.90;;;;;;5039837;28;20025;-83
2023/08/31 07:55:00;;;;;;;2.60;1.00;;;16.30;99.90;;;;;;5039884;28;20032;-84
2023/08/31 07:57:26;;;;;;;2.95;1.02;;;16.30;99.90;;;;;;5039851;28;20028;-85
2023/08/31 07:59:51;;;;;;;3.05;1.30;;;16.30;99.90;;;;;;5039361;28;20029;-85
2023/08/31 08:02:18;;;;;;;4.90;1.10;;;16.40;99.90;;;;;;5039114;28;20025;-87
2023/08/31 08:04:46;;;;;;;2.67;1.08;;;16.40;99.90;;;;;;5039476;28;20036;-85
2023/08/31 08:07:11;;;;;;;4.50;1.63;;;16.50;99.90;;;;;;5039001;28;20021;-90
2023/08/31 08:09:37;;;;;;;4.22;0.90;;;16.50;99.90;;;;;;5056501;28;20039;-85
2023/08/31 08:12:03;;;;;;;3.03;1.10;;;16.60;99.90;;;;;;5039395;28;20032;-84
2023/08/31 08:14:29;;;;;;;3.72;1.30;;;16.60;99.90;;;;;;5056250;28;20029;-84
2023/08/31 08:16:55;;;;;;;5.30;1.02;;;16.70;99.90;;;;;;5039405;28;20029;-85
2023/08/31 08:19:22;;;;;;;2.45;1.05;;;16.70;99.90;;;;;;5038495;28;20120;-85
2023/08/31 08:21:47;;;;;;;2.88;0.95;;;16.70;99.90;;;;;;5039116;28;20021;-85
2023/08/31 08:24:13;;;;;;;2.30;1.05;;;16.80;99.90;;;;;;5057127;28;20067;-89
2023/08/31 08:26:39;;;;;;;4.55;1.05;;;16.80;99.90;;;;;;5039833;28;20025;-85
2023/08/31 08:29:04;;;;;;;3.25;1.10;;;16.80;99.90;;;;;;5075317;28;20043;-85
2023/08/31 08:31:30;;;;;;;3.47;1.05;;;16.80;99.90;;;;;;5058582;28;20025;-85
2023/08/31 08:33:56;;;;;;;5.72;1.20;;;16.90;99.90;;;;;;5075091;28;20031;-85
2023/08/31 08:36:22;;;;;;;5.68;1.02;;;16.90;99.90;;;;;;5076142;28;20033;-85
2023/08/31 08:38:48;;;;;;;4.50;0.90;;;16.90;99.90;;;;;;5075387;28;20542;-85
2023/08/31 08:41:15;;;;;;;4.97;1.20;;;17.00;99.90;;;;;;5075614;28;20119;-93
2023/08/31 08:43:43;;;;;;;3.72;0.98;;;17.00;99.90;;;;;;5075373;28;20025;-84
2023/08/31 08:46:09;;;;;;;4.47;1.20;;;17.00;99.90;;;;;;5058614;28;20032;-84
2023/08/31 08:48:37;;;;;;;5.38;1.00;;;17.10;99.90;;;;;;5076095;28;20052;-84
2023/08/31 08:51:04;;;;;;;3.33;1.02;;;17.20;99.90;;;;;;5058531;28;20028;-86
2023/08/31 08:53:29;;;;;;;3.78;1.10;;;17.20;99.90;;;;;;5075154;28;20029;-85
2023/08/31 08:55:55;;;;;;;2.83;1.08;;;17.20;99.90;;;;;;5075265;28;20027;-86
2023/08/31 08:58:21;;;;;;;5.28;1.08;;;17.30;99.90;;;;;;5076267;28;20032;-86
2023/08/31 09:00:47;;;;;;;3.25;1.10;;;17.30;99.90;;;;;;5078684;28;20093;-85
2023/08/31 09:03:13;;;;;;;2.20;1.17;;;17.40;99.90;;;;;;5075580;28;20115;-84
2023/08/31 09:05:39;;;;;;;2.08;1.13;;;17.50;99.90;;;;;;5090728;28;20124;-83
2023/08/31 09:08:09;;;;;;;2.05;1.23;;;17.60;99.90;;;;;;5065951;28;20443;-84
2023/08/31 09:10:43;;;;;;;3.85;1.02;;;17.60;99.90;;;;;;5083350;28;20149;-83
2023/08/31 09:13:13;;;;;;;4.70;1.17;;;17.70;99.90;;;;;;5074600;28;20447;-87
2023/08/31 09:15:41;;;;;;;7.30;1.48;;;17.70;99.90;;;;;;5073415;28;20017;-85
2023/08/31 09:18:08;;;;;;;2.22;1.10;;;17.70;99.90;;;;;;5083689;28;20067;-85
2023/08/31 09:20:47;;;;;;;2.53;1.23;;;17.80;99.90;;;;;;5065269;28;20027;-85
2023/08/31 09:23:14;;;;;;;3.17;1.15;;;17.90;99.90;;;;;;5074209;28;20487;-84
2023/08/31 09:25:48;;;;;;;2.88;0.95;;;17.90;99.90;;;;;;5062045;28;20028;-84
2023/08/31 09:28:16;;;;;;;2.97;1.00;;;18.00;99.90;;;;;;5068298;28;20461;-85
2023/08/31 09:30:42;;;;;;;4.38;1.13;;;18.10;99.90;;;;;;5083645;28;20048;-85
2023/08/31 09:33:09;;;;;;;3.47;0.90;;;18.10;99.90;;;;;;5058213;28;20381;-85
2023/08/31 09:35:54;;;;;;;4.45;0.98;;;18.10;99.90;;;;;;5058767;28;20059;-85
2023/08/31 09:38:19;;;;;;;4.20;1.10;;;18.10;99.90;;;;;;5059196;28;20024;-85
2023/08/31 09:40:45;;;;;;;3.08;1.10;;;18.10;99.90;;;;;;5057928;28;20107;-86
2023/08/31 09:43:11;;;;;;;8.00;1.58;;;18.20;99.90;;;;;;5057106;28;20028;-86
2023/08/31 09:45:38;;;;;;;6.40;1.35;;;18.30;99.90;;;;;;5058181;28;20017;-85
2023/08/31 09:48:04;;;;;;;5.30;0.70;;;18.40;99.90;;;;;;5060705;28;20080;-85
2023/08/31 09:50:32;;;;;;;2.60;1.00;;;18.40;99.90;;;;;;5075538;28;20431;-85
2023/08/31 09:53:03;;;;;;;3.58;1.02;;;18.50;99.90;;;;;;5075737;28;20021;-85
2023/08/31 09:55:30;;;;;;;4.47;1.42;;;18.60;99.90;;;;;;5058342;28;20035;-85
2023/08/31 09:57:59;;;;;;;3.63;1.20;;;18.60;99.90;;;;;;5057567;28;20032;-85
2023/08/31 10:00:30;;;;;;;4.63;1.20;;;18.60;99.90;;;;;;5057320;28;20040;-86
2023/08/31 10:02:58;;;;;;;3.75;1.20;;;18.60;99.90;;;;;;5058595;28;20058;-84
2023/08/31 10:05:24;;;;;;;5.78;1.33;;;18.70;99.90;;;;;;5075886;28;20021;-85
2023/08/31 10:07:53;;;;;;;3.50;1.10;;;18.60;99.90;;;;;;5051524;28;20081;-84
2023/08/31 10:10:22;;;;;;;3.28;0.93;;;18.60;99.90;;;;;;5074837;28;20025;-85
2023/08/31 10:12:49;;;;;;;9.23;1.75;;;18.90;99.90;;;;;;5056843;28;20029;-84
2023/08/31 10:15:16;;;;;;;4.45;1.20;;;19.00;99.90;;;;;;5056975;28;20086;-85
2023/08/31 10:17:42;;;;;;;2.72;1.38;;;19.00;99.90;;;;;;5073854;28;20032;-84
2023/08/31 10:20:11;;;;;;;6.60;1.27;;;19.10;99.90;;;;;;5074303;28;20032;-84
2023/08/31 10:22:37;;;;;;;3.25;1.50;;;19.20;99.90;;;;;;5056138;28;20028;-84
2023/08/31 10:25:05;;;;;;;4.90;1.00;;;19.30;99.90;;;;;;5056590;28;20063;-84
2023/08/31 10:27:42;;;;;;;3.72;1.13;;;19.40;99.90;;;;;;5055803;28;20154;-84
2023/08/31 10:30:24;;;;;;;6.18;1.15;;;19.30;99.90;;;;;;5074342;28;20032;-84
2023/08/31 10:33:08;;;;;;;2.15;0.90;;;19.20;99.90;;;;;;5056432;28;20036;-85
2023/08/31 10:35:55;;;;;;;4.78;1.00;;;19.10;99.90;;;;;;5073473;28;20021;-85
2023/08/31 10:38:25;;;;;;;2.28;0.93;;;19.10;99.90;;;;;;5053905;28;20020;-84
2023/08/31 10:41:06;;;;;;;2.38;1.05;;;19.10;99.90;;;;;;5055592;28;20504;-85
2023/08/31 10:43:57;;;;;;;4.37;1.10;;;19.10;99.90;;;;;;5055540;28;20024;-84
2023/08/31 10:46:31;;;;;;;4.15;1.08;;;19.10;99.90;;;;;;5054292;28;20257;-85
2023/08/31 10:49:08;;;;;;;1.55;0.93;;;19.20;99.90;;;;;;5054018;28;20063;-84
2023/08/31 10:51:34;;;;;;;4.93;1.00;;;19.30;99.90;;;;;;5073784;28;20048;-84
2023/08/31 10:54:10;;;;;;;4.07;1.20;;;19.30;99.90;;;;;;5056833;28;20035;-84
2023/08/31 10:56:53;;;;;;;5.32;1.23;;;19.30;99.50;;;;;;5056054;28;20111;-85
2023/08/31 10:59:20;;;;;;;5.32;1.00;;;19.20;99.90;;;;;;5056461;28;20123;-84
2023/08/31 11:01:58;;;;;;;5.60;1.20;;;19.40;99.90;;;;;;5056581;28;20052;-84
2023/08/31 11:04:28;;;;;;;3.08;1.00;;;19.50;99.90;;;;;;5056198;28;20082;-86
2023/08/31 11:07:11;;;;;;;3.97;1.33;;;19.60;99.00;;;;;;5059625;28;20024;-84
2023/08/31 11:09:37;;;;;;;4.85;1.48;;;19.60;99.20;;;;;;5059971;28;20028;-84
2023/08/31 11:12:03;;;;;;;4.60;0.88;;;19.60;99.30;;;;;;5077567;28;20032;-84
2023/08/31 11:14:29;;;;;;;5.18;1.20;;;19.60;99.80;;;;;;5077449;28;20096;-85
2023/08/31 11:16:55;;;;;;;5.10;1.30;;;19.50;99.70;;;;;;5077982;28;20044;-84
2023/08/31 11:19:21;;;;;;;3.90;1.10;;;19.50;99.90;;;;;;5059536;28;20043;-84
2023/08/31 11:21:47;;;;;;;5.05;1.20;;;19.50;99.90;;;;;;5077658;28;20025;-84
2023/08/31 11:24:13;;;;;;;2.50;0.93;;;19.50;99.90;;;;;;5059948;28;20054;-84
2023/08/31 11:26:38;;;;;;;5.20;1.40;;;19.60;99.90;;;;;;5077217;28;20032;-85
2023/08/31 11:29:07;;;;;;;4.22;1.20;;;19.70;99.90;;;;;;5059955;28;20468;-84
2023/08/31 11:31:38;;;;;;;3.65;1.30;;;19.70;99.90;;;;;;5060131;28;20052;-85
2023/08/31 11:34:05;;;;;;;5.68;1.58;;;19.80;99.90;;;;;;5078158;28;20032;-84
2023/08/31 11:36:31;;;;;;;5.85;1.27;;;19.90;99.90;;;;;;5063513;28;20040;-84
2023/08/31 11:38:57;;;;;;;3.25;1.10;;;20.00;99.70;;;;;;5092487;28;20111;-84
2023/08/31 11:41:23;;;;;;;5.03;1.30;;;20.00;99.70;;;;;;5064882;28;20442;-94
2023/08/31 11:43:50;;;;;;;3.53;1.50;;;20.10;99.70;;;;;;5059496;28;20025;-84
2023/08/31 11:46:17;;;;;;;3.13;1.20;;;20.30;99.90;;;;;;5059195;28;20475;-86
2023/08/31 11:48:44;;;;;;;5.03;1.30;;;20.30;99.90;;;;;;5078732;28;20311;-84
2023/08/31 11:51:11;;;;;;;3.25;1.10;;;20.20;99.70;;;;;;5072844;28;20028;-84
2023/08/31 11:53:37;;;;;;;3.10;1.08;;;20.10;99.30;;;;;;5087698;28;20056;-87
2023/08/31 11:56:03;;;;;;;4.15;1.10;;;20.10;99.20;;;;;;5075438;28;20032;-84
2023/08/31 11:58:29;;;;;;;3.85;1.00;;;20.20;99.00;;;;;;5066627;28;20016;-85
2023/08/31 12:00:56;;;;;;;4.03;1.05;;;20.30;98.80;;;;;;5085267;28;20028;-84
2023/08/31 12:03:22;;;;;;;5.35;1.08;;;20.30;98.60;;;;;;5059376;28;20025;-85
2023/08/31 12:05:48;;;;;;;3.90;1.10;;;20.40;98.50;;;;;;5058945;28;20032;-84
2023/08/31 12:08:25;;;;;;;3.80;1.30;;;20.50;98.30;;;;;;5069218;28;20020;-84
2023/08/31 12:10:50;;;;;;;7.07;1.42;;;20.30;98.30;;;;;;5063650;28;20039;-86
2023/08/31 12:13:16;;;;;;;5.15;1.40;;;20.20;98.80;;;;;;5077993;28;20025;-85
2023/08/31 12:15:42;;;;;;;4.70;1.00;;;20.20;98.90;;;;;;5081759;28;20035;-84
2023/08/31 12:18:16;;;;;;;3.72;1.23;;;20.20;99.10;;;;;;5086039;28;20388;-84
2023/08/31 12:20:46;;;;;;;3.20;1.00;;;20.20;98.40;;;;;;5090537;28;20024;-83
2023/08/31 12:23:14;;;;;;;7.22;1.38;;;20.10;97.70;;;;;;5080183;28;20104;-84
2023/08/31 12:25:46;;;;;;;3.33;1.08;;;20.20;98.00;;;;;;5083445;28;20028;-84
2023/08/31 12:28:12;;;;;;;;;;;20.30;98.40;;;;;;5059550;28;20051;-81
2023/08/31 12:30:37;;;;;;;2.95;1.33;;;20.40;98.70;;;;;;5058350;28;20364;-82
2023/08/31 12:33:03;;;;;;;6.20;1.25;;;20.50;98.30;;;;;;5058886;28;20024;-83
2023/08/31 12:35:30;;;;;;;3.67;1.15;;;20.40;98.30;;;;;;5058568;28;20021;-84
2023/08/31 12:37:57;;;;;;;4.97;1.02;;;20.20;98.50;;;;;;5077096;28;20112;-84
2023/08/31 12:40:22;;;;;;;5.03;1.10;;;20.20;98.90;;;;;;5058988;28;20035;-84
2023/08/31 12:42:48;;;;;;;3.90;1.10;;;20.10;98.60;;;;;;5076211;28;20021;-83
2023/08/31 12:45:14;;;;;;;4.57;1.30;;;20.00;98.80;;;;;;5058933;28;20049;-83
2023/08/31 12:47:39;;;;;;;3.38;0.90;;;20.00;99.00;;;;;;5058098;28;20036;-84
2023/08/31 12:50:06;;;;;;;4.45;1.40;;;19.90;99.20;;;;;;5058676;28;20457;-84